Time;durP1;ratioP1;P1;durP2;ratioP2;P2;SDS_P1;SDS_P2;PMS_P1;PMS_P2;Temp;Humidity;BMP_temperature;BMP_pressure;BME280_temperature;BME280_humidity;BME280_pressure;Samples;Min_cycle;Max_cycle;Signal;HPM_P1;HPM_P2
2023/01/02 00:00:22;;;;;;;7.80;2.30;;;;;;;8.91;73.47;99571.84;102274;1298;61434;-24
2023/01/02 00:02:49;;;;;;;4.10;2.40;;;;;;;8.71;73.67;99582.28;102056;1298;62089;-25
2023/01/02 00:05:16;;;;;;;3.40;2.10;;;;;;;8.53;74.51;99578.94;102112;1298;75243;-25
2023/01/02 00:07:43;;;;;;;1.90;1.50;;;;;;;8.45;75.19;99576.67;102250;1298;76074;-25
2023/01/02 00:10:10;;;;;;;3.90;1.90;;;;;;;8.92;74.01;99573.15;102157;1301;75248;-25
2023/01/02 00:12:37;;;;;;;5.70;2.20;;;;;;;9.21;72.34;99575.52;102241;1291;61101;-24
2023/01/02 00:15:05;;;;;;;5.00;2.30;;;;;;;9.17;72.24;99577.39;102307;1291;62722;-25
2023/01/02 00:17:32;;;;;;;3.80;2.40;;;;;;;8.96;72.98;99575.80;102197;1300;76384;-25
2023/01/02 00:19:59;;;;;;;4.50;2.40;;;;;;;8.74;73.69;99582.61;102303;1291;76443;-24
2023/01/02 00:22:26;;;;;;;4.30;2.50;;;;;;;8.55;74.37;99584.34;102213;1294;73891;-24
2023/01/02 00:24:53;;;;;;;4.50;2.60;;;;;;;8.40;75.08;99584.75;102255;1293;61843;-24
2023/01/02 00:27:20;;;;;;;4.10;1.70;;;;;;;8.29;75.44;99583.53;102196;1296;61545;-25
2023/01/02 00:29:47;;;;;;;3.80;1.80;;;;;;;8.71;74.68;99578.80;102163;1299;75770;-25
2023/01/02 00:32:14;;;;;;;4.30;2.30;;;;;;;9.07;73.29;99579.77;102199;1301;76784;-25
2023/01/02 00:34:41;;;;;;;5.80;2.40;;;;;;;9.00;73.01;99580.26;102283;1282;74334;-25
2023/01/02 00:37:08;;;;;;;2.10;1.90;;;;;;;8.87;73.46;99581.80;102298;1299;62442;-25
2023/01/02 00:39:35;;;;;;;3.10;2.50;;;;;;;8.66;74.20;99590.23;102279;1298;61554;-24
2023/01/02 00:42:03;;;;;;;4.70;2.70;;;;;;;8.46;74.75;99592.86;102266;1299;75508;-24
2023/01/02 00:44:30;;;;;;;4.60;2.50;;;;;;;8.28;75.52;99594.85;102018;1300;76590;-24
2023/01/02 00:46:57;;;;;;;3.50;2.30;;;;;;;8.18;76.03;99597.90;102160;1297;75008;-25
2023/01/02 00:49:25;;;;;;;2.40;1.70;;;;;;;8.63;75.02;99593.67;102144;1297;61755;-25
2023/01/02 00:51:52;;;;;;;3.10;2.20;;;;;;;9.04;73.10;99591.73;102070;1301;61731;-25
2023/01/02 00:54:18;;;;;;;3.50;2.10;;;;;;;9.03;72.76;99597.02;102233;1291;76596;-25
2023/01/02 00:56:45;;;;;;;3.00;2.30;;;;;;;8.83;73.09;99609.92;102185;1298;76439;-25
2023/01/02 00:59:12;;;;;;;4.20;2.60;;;;;;;8.60;73.50;99610.52;102179;1298;75083;-25
2023/01/02 01:01:39;;;;;;;3.40;2.20;;;;;;;8.39;74.11;99608.83;102226;1295;63339;-25
2023/01/02 01:04:07;;;;;;;3.60;2.30;;;;;;;8.19;74.40;99608.71;102295;1299;62823;-25
2023/01/02 01:06:34;;;;;;;3.50;1.70;;;;;;;7.99;75.33;99603.88;102347;1298;76389;-24
2023/01/02 01:09:01;;;;;;;2.50;1.50;;;;;;;8.34;74.95;99605.03;102089;1293;75672;-24
2023/01/02 01:11:28;;;;;;;3.60;2.30;;;;;;;8.81;73.85;99604.31;102212;1299;74923;-25
2023/01/02 01:13:56;;;;;;;4.40;1.80;;;;;;;8.85;73.13;99603.51;102305;1298;62715;-25
2023/01/02 01:16:24;;;;;;;3.30;2.40;;;;;;;8.68;73.41;99601.70;102308;1298;61135;-24
2023/01/02 01:18:55;;;;;;;4.50;2.70;;;;;;;8.41;73.75;99597.33;102296;1298;76412;-24
2023/01/02 01:21:22;;;;;;;3.20;2.60;;;;;;;8.16;74.64;99599.73;101973;1296;75589;-25
2023/01/02 01:23:51;;;;;;;2.90;2.30;;;;;;;7.93;75.26;99597.73;102187;1298;74196;-25
2023/01/02 01:26:18;;;;;;;2.60;1.70;;;;;;;7.74;76.54;99592.77;102204;1295;63354;-25
2023/01/02 01:28:45;;;;;;;2.60;1.50;;;;;;;8.12;76.15;99593.96;102329;1291;61787;-24
2023/01/02 01:31:13;;;;;;;4.50;2.40;;;;;;;8.58;74.49;99588.30;102242;1293;76625;-25
2023/01/02 01:33:41;;;;;;;4.00;1.90;;;;;;;8.61;73.74;99592.98;102103;1304;75852;-25
2023/01/02 01:36:09;;;;;;;2.80;1.80;;;;;;;8.41;74.07;99592.48;102347;1290;75135;-25
2023/01/02 01:38:37;;;;;;;5.10;3.10;;;;;;;8.14;74.99;99593.13;102020;1300;62868;-25
2023/01/02 01:41:04;;;;;;;4.20;2.60;;;;;;;7.87;76.21;99590.79;102178;1299;62649;-25
2023/01/02 01:43:34;;;;;;;4.00;2.70;;;;;;;7.67;76.89;99595.30;102078;1301;76802;-25
2023/01/02 01:46:01;;;;;;;3.50;1.50;;;;;;;7.51;77.72;99594.00;102001;1298;76032;-25
2023/01/02 01:48:28;;;;;;;3.90;1.90;;;;;;;7.95;77.11;99600.52;102096;1291;73497;-25
2023/01/02 01:50:55;;;;;;;3.10;2.10;;;;;;;8.42;74.91;99600.91;101992;1299;62620;-25
2023/01/02 01:53:23;;;;;;;3.80;2.20;;;;;;;8.43;74.14;99602.70;101988;1297;61585;-25
2023/01/02 01:55:52;;;;;;;2.80;2.30;;;;;;;8.21;74.60;99604.83;102355;1297;76401;-25
2023/01/02 01:58:21;;;;;;;3.60;2.40;;;;;;;7.93;75.49;99605.34;102141;1294;74727;-25
2023/01/02 02:00:48;;;;;;;6.30;2.70;;;;;;;7.67;76.32;99604.28;102099;1294;75023;-25
2023/01/02 02:03:19;;;;;;;5.70;2.80;;;;;;;7.45;77.26;99603.31;101946;1295;61829;-24
2023/01/02 02:05:46;;;;;;;2.90;1.70;;;;;;;7.27;78.27;99600.55;101982;1298;62604;-24
2023/01/02 02:08:25;;;;;;;2.80;2.00;;;;;;;7.67;77.51;99603.44;102249;1302;76131;-25
2023/01/02 02:10:53;;;;;;;3.40;2.30;;;;;;;8.14;75.38;99601.75;102037;1294;77570;-25
2023/01/02 02:13:20;;;;;;;5.20;2.30;;;;;;;8.09;74.88;99603.83;101955;1302;74958;-25
2023/01/02 02:16:15;;;;;;;4.30;2.40;;;;;;;7.83;75.50;99602.30;102250;1299;61706;-25
2023/01/02 02:19:01;;;;;;;3.70;2.60;;;;;;;7.53;76.77;99603.05;102140;1294;61854;-25
2023/01/02 02:21:47;;;;;;;3.80;2.70;;;;;;;7.32;77.32;99600.66;102305;1299;76257;-25
2023/01/02 02:24:29;;;;;;;3.70;2.40;;;;;;;7.10;78.01;99603.31;102199;1294;76901;-25
2023/01/02 02:27:22;;;;;;;3.50;2.10;;;;;;;6.93;79.17;99605.84;101994;1294;74938;-25
2023/01/02 02:30:18;;;;;;;2.40;1.50;;;;;;;7.55;78.01;99609.64;102299;1298;62741;-25
2023/01/02 02:32:54;;;;;;;3.50;2.10;;;;;;;7.98;76.07;99606.41;102248;1298;61029;-25
2023/01/02 02:35:40;;;;;;;4.80;2.60;;;;;;;7.93;75.74;99608.42;102040;1291;76461;-25
2023/01/02 02:38:46;;;;;;;4.00;2.10;;;;;;;7.69;76.34;99608.50;102014;1299;75826;-25
2023/01/02 02:41:23;;;;;;;3.70;2.20;;;;;;;7.37;76.82;99608.83;101983;1300;74168;-25
2023/01/02 02:43:54;;;;;;;3.10;2.50;;;;;;;7.12;77.72;99611.48;101966;1301;61610;-24
2023/01/02 02:46:27;;;;;;;2.40;1.70;;;;;;;6.94;78.29;99616.84;102188;1292;61142;-24
2023/01/02 02:49:03;;;;;;;2.40;1.60;;;;;;;7.36;78.45;99619.10;101937;1301;76447;-24
2023/01/02 02:51:42;;;;;;;4.10;2.20;;;;;;;7.89;76.56;99619.39;102127;1299;76718;-24
2023/01/02 02:54:26;;;;;;;4.80;2.30;;;;;;;7.89;75.89;99616.63;102070;1298;75027;-25
2023/01/02 02:56:53;;;;;;;4.30;2.70;;;;;;;7.64;76.15;99616.73;102110;1295;62648;-25
2023/01/02 02:59:20;;;;;;;5.30;2.90;;;;;;;7.40;76.65;99617.30;101975;1301;62900;-25
2023/01/02 03:01:47;;;;;;;3.30;2.40;;;;;;;7.18;76.83;99616.52;101973;1297;76398;-25
2023/01/02 03:04:17;;;;;;;4.40;2.50;;;;;;;6.96;76.96;99620.16;102412;1291;76992;-24
2023/01/02 03:07:09;;;;;;;4.10;1.80;;;;;;;6.79;77.62;99619.23;102128;1301;75284;-24
2023/01/02 03:09:55;;;;;;;2.80;1.90;;;;;;;7.35;77.73;99619.14;102028;1301;62766;-25
2023/01/02 03:12:23;;;;;;;5.30;2.20;;;;;;;7.77;76.42;99614.90;101963;1293;62938;-25
2023/01/02 03:15:16;;;;;;;5.70;2.80;;;;;;;7.69;75.87;99612.27;102184;1293;75426;-25
2023/01/02 03:18:02;;;;;;;4.60;2.50;;;;;;;7.40;76.41;99616.05;101962;1298;76627;-25
2023/01/02 03:20:37;;;;;;;4.50;2.40;;;;;;;7.13;77.18;99611.09;102147;1301;74445;-25
2023/01/02 03:23:06;;;;;;;5.00;2.50;;;;;;;6.90;77.71;99611.17;102253;1291;62532;-25
2023/01/02 03:25:33;;;;;;;2.40;1.70;;;;;;;6.77;78.38;99612.25;101994;1298;61861;-24
2023/01/02 03:28:00;;;;;;;4.20;2.50;;;;;;;7.27;78.62;99611.14;102029;1293;76105;-24
2023/01/02 03:30:27;;;;;;;4.90;2.40;;;;;;;7.78;77.48;99612.08;101953;1298;74749;-25
2023/01/02 03:33:01;;;;;;;3.80;2.50;;;;;;;7.86;76.79;99610.77;102105;1295;74197;-24
2023/01/02 03:35:33;;;;;;;4.40;2.60;;;;;;;7.71;76.60;99612.68;101971;1298;62914;-25
2023/01/02 03:38:00;;;;;;;4.00;2.50;;;;;;;7.45;77.49;99611.61;101970;1299;62880;-25
2023/01/02 03:40:30;;;;;;;4.60;2.80;;;;;;;7.22;78.69;99612.77;102188;1298;76312;-25
2023/01/02 03:43:01;;;;;;;4.60;2.30;;;;;;;7.03;80.27;99615.46;102044;1302;76842;-25
2023/01/02 03:45:33;;;;;;;4.10;2.20;;;;;;;7.51;79.43;99618.03;102125;1294;75277;-26
2023/01/02 03:48:20;;;;;;;4.10;3.00;;;;;;;7.93;77.12;99621.38;102188;1301;61801;-25
2023/01/02 03:50:50;;;;;;;5.70;2.80;;;;;;;7.87;76.03;99627.48;102260;1299;63005;-24
2023/01/02 03:53:17;;;;;;;5.20;3.30;;;;;;;7.57;76.00;99628.38;101943;1297;75442;-24
2023/01/02 03:55:58;;;;;;;3.60;3.10;;;;;;;7.23;76.72;99628.80;102176;1298;76669;-24
2023/01/02 03:59:14;;;;;;;5.10;4.20;;;;;;;6.87;77.52;99624.98;102246;1295;74245;-25
2023/01/02 04:01:46;;;;;;;6.50;3.20;;;;;;;6.59;78.48;99628.13;101792;1298;64574;-25
2023/01/02 04:04:32;;;;;;;6.90;3.60;;;;;;;7.05;78.10;99627.91;102013;1298;61707;-25
2023/01/02 04:07:00;;;;;;;6.00;4.40;;;;;;;7.21;76.94;99625.13;102321;1293;76066;-24
2023/01/02 04:09:29;;;;;;;8.30;4.30;;;;;;;6.99;76.90;99633.98;102089;1298;75843;-25
2023/01/02 04:11:59;;;;;;;5.50;4.20;;;;;;;6.67;77.27;99630.95;101932;1298;73953;-24
2023/01/02 04:14:30;;;;;;;7.80;4.50;;;;;;;6.33;77.92;99632.45;101906;1302;62929;-25
2023/01/02 04:16:57;;;;;;;7.00;4.30;;;;;;;6.08;79.80;99643.62;101991;1301;63696;-25
2023/01/02 04:19:31;;;;;;;4.80;2.40;;;;;;;5.97;81.10;99640.56;101951;1298;76439;-25
2023/01/02 04:22:00;;;;;;;4.10;2.60;;;;;;;6.49;81.45;99642.59;101976;1302;76760;-24
2023/01/02 04:24:32;;;;;;;3.90;2.70;;;;;;;7.06;79.90;99645.17;101921;1293;73543;-25
2023/01/02 04:27:03;;;;;;;6.70;3.80;;;;;;;7.18;78.68;99649.45;101909;1298;61860;-25
2023/01/02 04:29:30;;;;;;;7.30;3.80;;;;;;;6.95;77.78;99651.14;102167;1298;62604;-25
2023/01/02 04:32:01;;;;;;;4.40;3.40;;;;;;;6.58;77.92;99657.11;102271;1298;75194;-25
2023/01/02 04:34:30;;;;;;;5.20;3.50;;;;;;;6.19;78.97;99664.39;102202;1298;76498;-24
2023/01/02 04:36:58;;;;;;;5.30;2.60;;;;;;;5.88;79.89;99664.79;102189;1301;75200;-24
2023/01/02 04:39:25;;;;;;;4.60;3.10;;;;;;;6.10;80.26;99673.29;102281;1291;62211;-24
2023/01/02 04:41:52;;;;;;;6.20;3.60;;;;;;;6.37;79.33;99671.52;101959;1293;62818;-25
2023/01/02 04:44:19;;;;;;;6.80;3.70;;;;;;;6.27;78.94;99675.36;102245;1299;76329;-25
2023/01/02 04:46:46;;;;;;;5.20;3.70;;;;;;;5.97;78.98;99675.16;102236;1298;76689;-24
2023/01/02 04:49:13;;;;;;;9.30;5.50;;;;;;;5.64;79.53;99667.71;102270;1293;75289;-24
2023/01/02 04:51:40;;;;;;;8.40;4.80;;;;;;;5.31;80.58;99667.98;102144;1291;62859;-24
2023/01/02 04:54:12;;;;;;;8.50;3.30;;;;;;;5.15;81.62;99672.73;102029;1298;62537;-24
2023/01/02 04:56:39;;;;;;;5.10;3.50;;;;;;;5.63;81.69;99673.48;101934;1301;75441;-25
2023/01/02 04:59:06;;;;;;;6.20;3.80;;;;;;;5.89;81.06;99669.91;102200;1298;75814;-25
2023/01/02 05:01:32;;;;;;;6.90;4.20;;;;;;;5.80;80.59;99669.52;102164;1294;75171;-24
2023/01/02 05:04:00;;;;;;;7.40;4.80;;;;;;;5.53;80.65;99673.98;102163;1298;61910;-24
2023/01/02 05:06:27;;;;;;;6.40;4.30;;;;;;;5.22;81.45;99674.78;102002;1298;61655;-24
2023/01/02 05:08:54;;;;;;;9.70;2.80;;;;;;;4.98;82.90;99672.88;102161;1298;74296;-25
2023/01/02 05:11:21;;;;;;;3.90;2.70;;;;;;;5.31;83.13;99672.63;102131;1298;75601;-24
2023/01/02 05:13:48;;;;;;;5.30;3.90;;;;;;;5.54;82.48;99671.52;101970;1301;75184;-24
2023/01/02 05:16:15;;;;;;;4.90;2.90;;;;;;;5.45;82.39;99669.02;102005;1301;61159;-24
2023/01/02 05:18:42;;;;;;;4.90;3.60;;;;;;;5.25;83.17;99670.18;102103;1301;62834;-24
2023/01/02 05:23:58;;;;;;;4.20;2.80;;;;;;;5.19;85.93;99684.25;102253;1294;76966;-24
2023/01/02 05:26:25;;;;;;;5.10;3.20;;;;;;;5.49;85.18;99687.06;102071;1298;73977;-25
2023/01/02 05:28:53;;;;;;;6.90;3.90;;;;;;;5.51;84.47;99693.01;102086;1285;62711;-24
2023/01/02 05:31:20;;;;;;;6.10;3.90;;;;;;;5.29;84.95;99706.66;102129;1293;61062;-25
2023/01/02 05:33:54;;;;;;;5.20;3.00;;;;;;;5.13;85.53;99712.44;102157;1291;76367;-25
2023/01/02 05:36:21;;;;;;;5.70;3.10;;;;;;;5.47;84.91;99713.70;102039;1298;76488;-25
2023/01/02 05:38:48;;;;;;;8.10;3.80;;;;;;;5.70;83.87;99715.69;102106;1301;75253;-25
2023/01/02 05:41:16;;;;;;;6.30;3.70;;;;;;;5.49;84.11;99720.67;101993;1299;62734;-24
2023/01/02 05:43:43;;;;;;;8.40;3.80;;;;;;;5.31;84.96;99725.70;102235;1298;61802;-25
2023/01/02 05:46:11;;;;;;;7.10;3.70;;;;;;;5.06;85.49;99724.63;102303;1298;76104;-25
2023/01/02 05:48:39;;;;;;;7.50;2.90;;;;;;;5.09;86.06;99727.77;102131;1298;75645;-24
2023/01/02 05:51:08;;;;;;;6.50;3.60;;;;;;;5.36;85.48;99728.55;102092;1301;74980;-24
2023/01/02 05:53:35;;;;;;;6.20;3.90;;;;;;;5.40;85.07;99731.61;102087;1298;61783;-24
2023/01/02 05:56:10;;;;;;;6.40;3.90;;;;;;;5.18;85.72;99730.41;102350;1298;61606;-24
2023/01/02 05:58:38;;;;;;;4.90;3.20;;;;;;;5.03;85.92;99730.79;102067;1298;76379;-24
2023/01/02 06:01:07;;;;;;;4.70;3.00;;;;;;;4.86;87.46;99729.71;102017;1301;74749;-25
2023/01/02 06:03:34;;;;;;;4.40;2.80;;;;;;;5.27;86.38;99728.45;102097;1293;74230;-24
2023/01/02 06:06:09;;;;;;;2.30;1.90;;;;;;;5.42;85.47;99726.21;102241;1299;62599;-24
2023/01/02 06:08:36;;;;;;;7.50;4.20;;;;;;;5.35;85.30;99727.20;101984;1302;62889;-24
2023/01/02 06:11:04;;;;;;;5.80;3.50;;;;;;;5.25;85.60;99726.70;102086;1298;75874;-24
2023/01/02 06:13:32;;;;;;;6.50;3.20;;;;;;;5.13;85.56;99726.86;102241;1285;76879;-25
2023/01/02 06:15:59;;;;;;;5.60;3.10;;;;;;;5.49;85.21;99727.70;101945;1298;74197;-24
2023/01/02 06:18:27;;;;;;;4.10;2.50;;;;;;;5.78;84.05;99726.81;102199;1298;61988;-24
2023/01/02 06:21:01;;;;;;;5.50;3.30;;;;;;;5.70;83.94;99724.30;102031;1298;61518;-24
2023/01/02 06:23:28;;;;;;;5.80;3.60;;;;;;;5.59;84.22;99721.58;102027;1298;75368;-24
2023/01/02 06:26:04;;;;;;;4.10;2.10;;;;;;;5.36;84.99;99727.17;102010;1301;75482;-24
2023/01/02 06:28:32;;;;;;;5.20;3.40;;;;;;;5.57;85.08;99729.36;101891;1303;75155;-24
2023/01/02 06:31:10;;;;;;;4.60;2.90;;;;;;;6.00;83.88;99729.52;102211;1301;61511;-25
2023/01/02 06:33:37;;;;;;;4.20;2.70;;;;;;;6.01;83.35;99733.91;102201;1301;62633;-24
2023/01/02 06:36:05;;;;;;;5.40;2.70;;;;;;;5.84;83.71;99732.54;102218;1298;75315;-24
2023/01/02 06:38:33;;;;;;;6.40;2.80;;;;;;;5.60;84.60;99736.84;102292;1291;77046;-25
2023/01/02 06:41:01;;;;;;;3.60;2.40;;;;;;;5.50;85.73;99736.84;102159;1291;73934;-24
2023/01/02 06:43:28;;;;;;;6.50;2.80;;;;;;;6.01;84.98;99737.55;102143;1301;63081;-25
2023/01/02 06:45:57;;;;;;;5.30;3.20;;;;;;;6.33;83.21;99735.56;102243;1284;61745;-24
2023/01/02 06:48:24;;;;;;;7.20;2.90;;;;;;;6.28;83.38;99738.93;102191;1298;76585;-24
2023/01/02 06:50:51;;;;;;;4.90;3.10;;;;;;;6.25;83.41;99744.28;102282;1293;76690;-24
2023/01/02 06:53:18;;;;;;;4.40;3.00;;;;;;;6.14;83.46;99747.23;102191;1290;75448;-24
2023/01/02 06:55:50;;;;;;;3.80;2.50;;;;;;;6.05;83.39;99749.75;102107;1294;64486;-25
2023/01/02 06:58:18;;;;;;;3.80;2.50;;;;;;;6.54;83.27;99743.45;101959;1292;62890;-24
2023/01/02 07:00:45;;;;;;;4.70;2.60;;;;;;;7.06;81.88;99743.75;101955;1298;76430;-25
2023/01/02 07:03:13;;;;;;;3.80;3.00;;;;;;;7.13;81.20;99742.32;102207;1301;75496;-25
2023/01/02 07:05:40;;;;;;;8.60;2.90;;;;;;;7.04;81.22;99741.64;102278;1297;74945;-25
2023/01/02 07:08:07;;;;;;;7.20;2.60;;;;;;;6.83;81.46;99740.18;102100;1301;62662;-25
2023/01/02 07:10:34;;;;;;;4.90;2.90;;;;;;;6.67;82.31;99737.55;102161;1298;61690;-24
2023/01/02 07:13:02;;;;;;;2.40;1.70;;;;;;;6.68;82.47;99739.41;102258;1293;75314;-25
2023/01/02 07:15:29;;;;;;;3.30;1.80;;;;;;;7.26;82.17;99741.41;102296;1291;75777;-24
2023/01/02 07:17:56;;;;;;;3.70;2.70;;;;;;;7.92;80.65;99737.10;102266;1298;75236;-24
2023/01/02 07:20:23;;;;;;;3.20;2.60;;;;;;;8.09;79.32;99732.12;102309;1299;61799;-25
2023/01/02 07:22:53;;;;;;;8.40;2.60;;;;;;;8.04;79.08;99726.17;102284;1298;61830;-25
2023/01/02 07:25:20;;;;;;;3.10;2.30;;;;;;;7.88;79.03;99721.41;101979;1302;76357;-24
2023/01/02 07:27:47;;;;;;;4.30;2.70;;;;;;;7.74;79.58;99722.23;102312;1298;75395;-24
2023/01/02 07:30:14;;;;;;;5.20;3.00;;;;;;;7.68;79.84;99721.56;102120;1293;75205;-24
2023/01/02 07:32:42;;;;;;;4.10;3.00;;;;;;;7.58;79.92;99725.41;102243;1297;61787;-25
2023/01/02 07:35:09;;;;;;;4.90;2.70;;;;;;;7.53;80.67;99725.88;102168;1298;61217;-24
2023/01/02 07:37:37;;;;;;;5.00;3.50;;;;;;;8.02;80.09;99727.51;102219;1291;76399;-24
2023/01/02 07:40:04;;;;;;;10.10;5.00;;;;;;;8.49;78.41;99732.85;102263;1298;76503;-24
2023/01/02 07:42:31;;;;;;;9.20;5.70;;;;;;;8.58;77.75;99733.67;101963;1294;75276;-24
2023/01/02 07:44:58;;;;;;;13.80;7.90;;;;;;;8.56;77.59;99732.80;102327;1288;63071;-24
2023/01/02 07:47:25;;;;;;;11.10;4.70;;;;;;;8.49;78.00;99730.40;102313;1291;62616;-25
2023/01/02 07:49:52;;;;;;;5.50;3.80;;;;;;;8.46;78.02;99731.08;102249;1298;76449;-24
2023/01/02 07:52:19;;;;;;;4.60;2.80;;;;;;;8.46;78.00;99731.95;101997;1295;75759;-25
2023/01/02 07:54:46;;;;;;;4.00;3.10;;;;;;;8.45;78.28;99733.89;102109;1301;75168;-24
2023/01/02 07:57:13;;;;;;;5.00;3.50;;;;;;;8.49;78.18;99739.59;102049;1293;62456;-24
2023/01/02 07:59:43;;;;;;;5.00;2.90;;;;;;;8.52;78.26;99732.34;102235;1298;62749;-25
2023/01/02 08:02:11;;;;;;;2.50;2.10;;;;;;;8.57;78.21;99737.56;102109;1295;75627;-24
2023/01/02 08:04:38;;;;;;;2.40;1.90;;;;;;;9.19;77.76;99742.14;102347;1299;77195;-25
2023/01/02 08:07:05;;;;;;;4.70;2.80;;;;;;;9.78;75.54;99746.77;102165;1295;75504;-25
2023/01/02 08:09:32;;;;;;;6.00;2.80;;;;;;;9.98;74.75;99743.89;102183;1298;61532;-24
2023/01/02 08:11:59;;;;;;;3.10;2.40;;;;;;;10.00;74.26;99750.17;102114;1299;62865;-25
2023/01/02 08:14:26;;;;;;;6.60;3.30;;;;;;;9.95;74.46;99752.92;102269;1299;75419;-25
2023/01/02 08:16:53;;;;;;;3.70;3.00;;;;;;;9.86;74.28;99749.58;102306;1291;76891;-24
2023/01/02 08:19:20;;;;;;;4.80;3.40;;;;;;;9.64;73.84;99745.31;102286;1295;73138;-25
2023/01/02 08:21:47;;;;;;;6.00;3.10;;;;;;;9.47;74.36;99740.85;102310;1298;61577;-25
2023/01/02 08:24:14;;;;;;;5.40;3.50;;;;;;;9.31;74.30;99741.59;102226;1301;62840;-24
2023/01/02 08:26:41;;;;;;;5.90;3.60;;;;;;;9.26;75.14;99745.17;102137;1294;75232;-24
2023/01/02 08:29:08;;;;;;;4.60;2.90;;;;;;;9.38;74.99;99754.49;102281;1298;75401;-24
2023/01/02 08:31:35;;;;;;;5.80;3.30;;;;;;;9.43;74.98;99755.38;102215;1301;75739;-25
2023/01/02 08:34:13;;;;;;;4.10;3.10;;;;;;;9.48;74.88;99745.48;102351;1297;62747;-24
2023/01/02 08:36:40;;;;;;;4.30;3.10;;;;;;;9.48;74.92;99750.69;102240;1301;62561;-25
2023/01/02 08:39:08;;;;;;;5.80;3.60;;;;;;;9.54;74.83;99753.76;102138;1293;76197;-25
2023/01/02 08:41:36;;;;;;;6.60;3.50;;;;;;;9.61;74.65;99761.42;102133;1301;76842;-25
2023/01/02 08:44:03;;;;;;;4.80;3.60;;;;;;;9.67;74.51;99759.69;102167;1299;74244;-24
2023/01/02 08:46:31;;;;;;;7.50;4.10;;;;;;;9.71;74.60;99758.58;102149;1301;62881;-25
2023/01/02 08:49:08;;;;;;;5.70;3.90;;;;;;;9.73;74.38;99758.73;101932;1302;62634;-24
2023/01/02 08:51:35;;;;;;;7.40;4.30;;;;;;;9.78;74.71;99758.61;102193;1300;76002;-25
2023/01/02 08:54:02;;;;;;;7.40;4.60;;;;;;;9.88;74.53;99765.20;102236;1298;76779;-24
2023/01/02 08:56:30;;;;;;;7.00;3.90;;;;;;;10.09;74.25;99767.47;102219;1298;75159;-24
2023/01/02 08:59:01;;;;;;;4.50;3.40;;;;;;;10.31;73.83;99764.92;101991;1296;62075;-24
2023/01/02 09:01:29;;;;;;;8.20;3.80;;;;;;;10.54;73.05;99768.27;102100;1298;62930;-25
2023/01/02 09:03:57;;;;;;;6.70;3.60;;;;;;;10.70;72.25;99767.81;102001;1298;76535;-24
2023/01/02 09:06:25;;;;;;;4.00;3.00;;;;;;;10.89;71.20;99771.52;102293;1298;77138;-25
2023/01/02 09:08:54;;;;;;;5.30;3.40;;;;;;;11.06;70.42;99773.79;101990;1298;73128;-25
2023/01/02 09:11:26;;;;;;;7.30;3.50;;;;;;;11.23;70.37;99772.76;102013;1298;61848;-25
2023/01/02 09:13:53;;;;;;;5.50;3.80;;;;;;;11.32;70.71;99768.09;101988;1300;62700;-24
2023/01/02 09:16:21;;;;;;;8.20;3.90;;;;;;;11.42;70.43;99769.11;102138;1295;76424;-25
2023/01/02 09:18:48;;;;;;;6.10;4.00;;;;;;;11.49;69.60;99764.15;102274;1291;74868;-26
2023/01/02 09:21:15;;;;;;;5.80;4.00;;;;;;;11.61;69.18;99759.05;102229;1298;74096;-25
2023/01/02 09:23:42;;;;;;;4.80;3.40;;;;;;;11.80;68.75;99754.20;102123;1301;61353;-25
2023/01/02 09:26:10;;;;;;;5.50;4.00;;;;;;;11.86;68.71;99754.20;102288;1292;62737;-24
2023/01/02 09:28:37;;;;;;;9.00;3.40;;;;;;;11.90;68.78;99746.48;102135;1301;75527;-25
2023/01/02 09:31:05;;;;;;;5.00;3.60;;;;;;;12.10;68.56;99739.55;102068;1301;77131;-25
2023/01/02 09:33:39;;;;;;;4.20;3.40;;;;;;;12.18;67.49;99733.44;101994;1301;75209;-25
2023/01/02 09:36:07;;;;;;;4.80;3.30;;;;;;;12.12;67.83;99722.52;101998;1298;62607;-25
2023/01/02 09:38:34;;;;;;;5.60;3.10;;;;;;;12.39;67.95;99727.39;102128;1294;62113;-25
2023/01/02 09:41:09;;;;;;;7.60;3.10;;;;;;;12.59;66.76;99726.52;102224;1293;76425;-25
2023/01/02 09:43:40;;;;;;;3.00;2.60;;;;;;;12.75;66.28;99723.01;102092;1294;76749;-25
2023/01/02 09:46:09;;;;;;;5.40;2.70;;;;;;;12.77;65.74;99720.58;102013;1299;73935;-25
2023/01/02 09:48:36;;;;;;;4.60;2.70;;;;;;;12.95;66.10;99717.10;102070;1293;62984;-24
2023/01/02 09:51:04;;;;;;;2.90;2.20;;;;;;;12.97;64.87;99716.41;102045;1291;61554;-25
2023/01/02 09:53:33;;;;;;;3.90;2.50;;;;;;;12.99;64.88;99709.96;101967;1298;73518;-25
2023/01/02 09:56:09;;;;;;;4.60;2.10;;;;;;;13.07;65.07;99701.34;102001;1295;76089;-25
2023/01/02 09:58:49;;;;;;;4.30;2.20;;;;;;;12.86;64.77;99697.25;102008;1298;73956;-25
2023/01/02 10:01:50;;;;;;;4.00;2.10;;;;;;;12.70;65.31;99686.13;101991;1287;62006;-25
2023/01/02 10:04:48;;;;;;;3.10;2.20;;;;;;;12.88;64.62;99677.09;102256;1299;61845;-25
2023/01/02 10:07:30;;;;;;;3.60;1.90;;;;;;;12.88;64.17;99670.90;101299;1298;1417397;-25
2023/01/02 10:10:12;;;;;;;2.70;2.20;;;;;;;13.06;63.95;99670.03;102163;1294;75510;-25
2023/01/02 10:12:58;;;;;;;3.90;2.70;;;;;;;13.44;63.33;99666.90;102226;1298;74188;-25
2023/01/02 10:15:26;;;;;;;6.70;3.20;;;;;;;13.74;62.79;99664.63;102223;1298;61545;-25
2023/01/02 10:17:57;;;;;;;3.80;2.20;;;;;;;13.93;62.14;99661.29;102188;1298;61800;-25
2023/01/02 10:20:39;;;;;;;2.70;2.00;;;;;;;14.13;61.55;99653.64;102076;1301;75406;-25
2023/01/02 10:23:09;;;;;;;3.90;2.50;;;;;;;14.28;60.26;99650.95;102032;1303;75903;-25
2023/01/02 10:25:38;;;;;;;4.00;2.10;;;;;;;14.39;59.63;99653.61;102208;1292;74287;-25
2023/01/02 10:28:26;;;;;;;4.20;2.50;;;;;;;14.49;59.91;99657.90;102050;1302;62872;-25
2023/01/02 10:31:04;;;;;;;2.30;1.80;;;;;;;14.56;59.47;99653.77;102135;1294;62749;-25
2023/01/02 10:33:59;;;;;;;4.80;2.40;;;;;;;14.64;59.40;99651.98;102080;1298;76587;-24
2023/01/02 10:36:31;;;;;;;4.10;2.20;;;;;;;14.67;59.91;99651.55;102053;1293;74862;-24
2023/01/02 10:39:04;;;;;;;3.50;2.30;;;;;;;14.68;60.06;99642.90;102068;1300;74999;-25
2023/01/02 10:41:31;;;;;;;3.40;1.80;;;;;;;14.57;59.34;99644.69;102240;1298;61905;-24
2023/01/02 10:44:02;;;;;;;3.50;1.90;;;;;;;14.55;59.03;99648.79;102347;1297;61674;-25
2023/01/02 10:46:34;;;;;;;3.30;1.90;;;;;;;14.55;59.02;99643.54;102235;1302;75374;-25
2023/01/02 10:49:03;;;;;;;5.80;2.00;;;;;;;14.39;59.41;99645.30;101949;1298;76758;-24
2023/01/02 10:51:30;;;;;;;4.40;2.00;;;;;;;14.45;59.60;99647.91;102114;1301;74247;-24
2023/01/02 10:54:05;;;;;;;5.60;2.30;;;;;;;14.47;59.45;99644.08;102293;1290;61549;-25
2023/01/02 10:56:37;;;;;;;5.10;2.20;;;;;;;14.43;58.98;99643.70;102078;1298;62896;-24
2023/01/02 10:59:22;;;;;;;4.00;2.30;;;;;;;14.46;59.42;99639.10;102058;1302;76146;-24
2023/01/02 11:01:57;;;;;;;5.20;2.30;;;;;;;14.31;59.70;99634.73;102066;1304;76342;-24
2023/01/02 11:04:29;;;;;;;2.40;1.90;;;;;;;14.51;59.68;99639.34;102015;1294;75423;-24
2023/01/02 11:07:00;;;;;;;2.70;1.90;;;;;;;14.54;59.91;99638.19;101943;1293;61876;-24
2023/01/02 11:09:28;;;;;;;5.40;2.50;;;;;;;14.42;59.43;99635.02;101985;1302;62904;-25
2023/01/02 11:11:56;;;;;;;4.60;2.70;;;;;;;14.28;59.27;99632.27;102194;1292;75076;-24
2023/01/02 11:14:27;;;;;;;2.80;2.10;;;;;;;14.36;59.64;99638.05;102061;1298;75830;-25
2023/01/02 11:17:00;;;;;;;4.70;2.10;;;;;;;14.32;59.62;99637.10;102062;1302;75002;-24
2023/01/02 11:19:27;;;;;;;;;;;;;;;14.21;60.23;99639.33;102044;1296;61603;-24
2023/01/02 11:21:56;;;;;;;4.20;1.60;;;;;;;14.29;59.93;99633.40;102329;1298;62600;-24
2023/01/02 11:24:25;;;;;;;4.60;2.00;;;;;;;14.35;59.94;99634.08;101932;1301;75398;-24
2023/01/02 11:26:53;;;;;;;2.80;2.00;;;;;;;14.42;60.09;99643.08;102164;1297;75463;-24
2023/01/02 11:29:30;;;;;;;3.60;2.20;;;;;;;14.49;59.30;99643.36;102207;1297;74980;-24
2023/01/02 11:33:12;;;;;;;3.20;1.80;;;;;;;14.49;59.38;99647.69;99380;1334;600316;-23
2023/01/02 11:35:48;;;;;;;3.40;2.00;;;;;;;14.48;59.37;99647.09;101014;1314;61832;-23
2023/01/02 11:38:17;;;;;;;4.30;2.30;;;;;;;14.53;59.01;99643.15;100736;1308;61713;-24
2023/01/02 11:41:00;;;;;;;4.10;2.10;;;;;;;14.63;59.36;99636.19;100952;1317;74691;-23
2023/01/02 11:43:50;;;;;;;4.40;2.30;;;;;;;14.55;59.28;99626.23;101130;1315;75750;-23
2023/01/02 11:46:24;;;;;;;4.50;2.60;;;;;;;14.49;59.58;99619.28;99958;1308;1468203;-23
2023/01/02 11:48:52;;;;;;;3.30;2.10;;;;;;;14.59;59.97;99616.55;101327;1297;61736;-23
2023/01/02 11:51:19;;;;;;;5.40;2.10;;;;;;;14.72;59.39;99610.59;101669;1301;63159;-24